Time;durP1;ratioP1;P1;durP2;ratioP2;P2;SDS_P1;SDS_P2;PMS_P1;PMS_P2;Temp;Humidity;BMP_temperature;BMP_pressure;BME280_temperature;BME280_humidity;BME280_pressure;Samples;Min_cycle;Max_cycle;Signal;HPM_P1;HPM_P2
2022/05/29 00:01:52;;;;;;;;;2.33;1.33;;;;;13.26;46.21;101263.09;5051488;28;45419;-74
2022/05/29 00:04:19;;;;;;;;;1.33;1.33;;;;;12.90;46.19;101198.03;5033043;28;45730;-74
2022/05/29 00:06:47;;;;;;;;;1.00;0.33;;;;;14.09;46.29;101389.44;5044733;28;45264;-73
2022/05/29 00:09:18;;;;;;;;;1.67;1.67;;;;;14.21;46.46;101427.47;5025360;28;47611;-73
2022/05/29 00:11:44;;;;;;;;;1.00;1.00;;;;;14.16;46.72;101433.28;5034783;28;46388;-74
2022/05/29 00:14:09;;;;;;;;;2.00;1.00;;;;;14.20;46.85;101423.97;5022686;28;45523;-73
2022/05/29 00:16:35;;;;;;;;;2.00;1.67;;;;;13.90;46.52;101363.66;5021914;28;45277;-73
2022/05/29 00:19:00;;;;;;;;;1.67;1.67;;;;;14.14;46.40;101397.84;5035115;28;47527;-73
2022/05/29 00:21:31;;;;;;;;;1.67;1.67;;;;;14.15;46.78;101404.88;5027064;28;45305;-73
2022/05/29 00:23:56;;;;;;;;;2.00;2.00;;;;;13.93;46.89;101368.69;5016341;28;45332;-74
2022/05/29 00:26:22;;;;;;;;;3.67;3.67;;;;;14.21;46.26;101425.63;5046637;28;45564;-74
2022/05/29 00:28:47;;;;;;;;;2.00;2.00;;;;;13.93;46.64;101367.88;5020142;28;45812;-73
2022/05/29 00:31:13;;;;;;;;;2.00;2.00;;;;;14.11;46.94;101398.13;5029649;28;45551;-75
2022/05/29 00:33:40;;;;;;;;;1.33;1.33;;;;;14.04;47.32;101401.59;5050853;28;45451;-74
2022/05/29 00:36:09;;;;;;;;;1.67;1.67;;;;;13.92;46.90;101396.44;5048131;28;45441;-73
2022/05/29 00:38:39;;;;;;;;;1.33;1.33;;;;;14.00;47.15;101407.19;5035365;28;48056;-74
2022/05/29 00:41:17;;;;;;;;;1.67;1.00;;;;;14.04;46.88;101402.41;5037850;28;45310;-74
2022/05/29 00:43:43;;;;;;;;;2.00;2.00;;;;;13.44;47.08;101316.53;5043178;28;45604;-74
2022/05/29 00:46:09;;;;;;;;;1.00;1.00;;;;;13.64;47.91;101360.88;5046871;28;45574;-74
2022/05/29 00:48:34;;;;;;;;;2.00;2.00;;;;;13.48;47.77;101349.97;5020978;28;45619;-74
2022/05/29 00:51:05;;;;;;;;;2.67;2.67;;;;;13.16;48.31;101320.13;5019254;28;45335;-72
2022/05/29 00:53:33;;;;;;;;;1.33;1.33;;;;;13.25;48.44;101344.19;5017994;28;45557;-73
2022/05/29 00:56:07;;;;;;;;;2.67;2.67;;;;;13.34;48.71;101371.81;5020226;28;45557;-72
2022/05/29 00:58:33;;;;;;;;;2.00;2.00;;;;;13.50;48.80;101408.59;5018686;28;48668;-75
2022/05/29 01:00:58;;;;;;;;;15.33;14.00;;;;;13.25;49.35;101375.38;5034864;28;45447;-73
2022/05/29 01:03:24;;;;;;;;;2.00;2.00;;;;;12.96;49.05;101320.22;5053921;28;45587;-74
2022/05/29 01:05:49;;;;;;;;;2.00;2.00;;;;;12.98;49.29;101320.91;5027202;28;45383;-76
2022/05/29 01:08:24;;;;;;;;;1.67;1.67;;;;;13.25;49.32;101364.69;5025961;28;48537;-74
2022/05/29 01:10:49;;;;;;;;;2.00;2.00;;;;;13.46;48.86;101397.38;5024140;28;45448;-72
2022/05/29 01:13:15;;;;;;;;;1.33;0.67;;;;;13.35;49.39;101390.38;5018922;28;45537;-74
2022/05/29 01:15:55;;;;;;;;;2.00;2.00;;;;;13.29;49.60;101398.13;5019152;28;45531;-73
2022/05/29 01:18:35;;;;;;;;;2.00;2.00;;;;;12.80;49.28;101306.63;5018646;28;45641;-74
2022/05/29 01:21:19;;;;;;;;;4.00;3.00;;;;;13.35;49.56;101390.38;5025883;28;45508;-73
2022/05/29 01:24:06;;;;;;;;;2.00;2.00;;;;;12.44;49.84;101237.09;5037042;28;45439;-74
2022/05/29 01:26:52;;;;;;;;;5.00;2.33;;;;;13.29;50.13;101374.09;5021984;28;45604;-72
2022/05/29 01:29:32;;;;;;;;;2.33;2.33;;;;;12.95;49.95;101339.03;5026386;28;45952;-72
2022/05/29 01:32:06;;;;;;;;;2.00;2.00;;;;;12.76;50.33;101313.25;5022872;28;45487;-73
2022/05/29 01:34:53;;;;;;;;;2.33;1.00;;;;;13.22;50.54;101383.69;5017057;28;45315;-74
2022/05/29 01:37:27;;;;;;;;;2.00;2.00;;;;;13.21;50.66;101371.28;5033257;28;45459;-77
2022/05/29 01:40:09;;;;;;;;;1.00;1.00;;;;;12.91;50.31;101326.97;5036220;28;45301;-76
2022/05/29 01:42:44;;;;;;;;;2.00;2.00;;;;;12.68;51.24;101307.78;5037538;28;45285;-76
2022/05/29 01:45:22;;;;;;;;;1.33;1.00;;;;;12.87;51.19;101339.78;5037833;28;45382;-74
2022/05/29 01:47:58;;;;;;;;;2.00;2.00;;;;;12.49;51.90;101287.34;5032744;28;45423;-73
2022/05/29 01:50:42;;;;;;;;;2.00;2.00;;;;;12.01;51.82;101199.41;5018368;28;47505;-74
2022/05/29 01:53:31;;;;;;;;;3.00;2.00;;;;;13.01;51.86;101365.13;5016661;28;45570;-74
2022/05/29 01:56:04;;;;;;;;;3.33;2.00;;;;;13.01;51.87;101373.16;5033750;28;45297;-74
2022/05/29 01:58:38;;;;;;;;;2.00;2.00;;;;;12.83;52.20;101349.06;5017046;28;45415;-74
2022/05/29 02:01:05;;;;;;;;;3.00;3.00;;;;;12.52;52.83;101308.38;5018666;28;47389;-75
2022/05/29 02:03:44;;;;;;;;;3.67;3.00;;;;;12.49;52.88;101312.19;5017717;28;45402;-78
2022/05/29 02:06:14;;;;;;;;;4.00;2.33;;;;;12.25;53.21;101286.94;5021688;28;45548;-73
2022/05/29 02:08:52;;;;;;;;;4.00;1.67;;;;;12.42;53.27;101331.56;5030914;28;45714;-74
2022/05/29 02:11:26;;;;;;;;;3.67;3.67;;;;;12.57;53.57;101351.47;5016769;28;47516;-74
2022/05/29 02:13:57;;;;;;;;;2.00;2.00;;;;;12.09;53.76;101292.84;5020044;28;45434;-78
2022/05/29 02:16:38;;;;;;;;;2.00;2.00;;;;;11.71;53.51;101217.22;5023267;28;45307;-75
2022/05/29 02:19:24;;;;;;;;;5.00;3.00;;;;;12.61;53.31;101362.69;5017630;28;45337;-78
2022/05/29 02:22:01;;;;;;;;;2.00;2.00;;;;;12.59;53.71;101359.31;5019382;28;46375;-73
2022/05/29 02:24:33;;;;;;;;;2.00;2.00;;;;;12.45;53.45;101325.94;5018761;28;45499;-74
2022/05/29 02:27:06;;;;;;;;;2.33;2.33;;;;;10.98;53.38;101078.31;5017496;28;45419;-75
2022/05/29 02:29:32;;;;;;;;;4.33;4.33;;;;;12.68;53.58;101358.47;5018618;28;45899;-74
2022/05/29 02:32:06;;;;;;;;;2.00;2.00;;;;;12.63;53.69;101350.06;5029732;28;46324;-72
2022/05/29 02:34:45;;;;;;;;;2.33;2.00;;;;;12.61;54.29;101349.34;5017865;28;45409;-75
2022/05/29 02:37:10;;;;;;;;;5.00;4.33;;;;;12.61;54.10;101352.00;5039506;28;45255;-73
2022/05/29 02:39:44;;;;;;;;;4.00;3.00;;;;;12.44;54.70;101346.44;5033871;28;45435;-72
2022/05/29 02:42:16;;;;;;;;;2.67;2.67;;;;;12.10;54.61;101289.19;5025162;28;45510;-72
2022/05/29 02:44:47;;;;;;;;;4.00;3.00;;;;;11.52;54.82;101193.22;5034749;28;45802;-73
2022/05/29 02:47:28;;;;;;;;;4.33;3.33;;;;;12.33;55.22;101341.25;5032649;28;45574;-72
2022/05/29 02:50:10;;;;;;;;;2.67;2.33;;;;;11.50;55.42;101217.34;5033578;28;45580;-72
2022/05/29 02:52:36;;;;;;;;;3.00;3.00;;;;;11.70;55.42;101244.84;5034009;28;47638;-71
2022/05/29 02:55:01;;;;;;;;;6.00;4.00;;;;;12.32;55.76;101341.38;5017137;28;45406;-71
2022/05/29 02:57:27;;;;;;;;;3.67;2.67;;;;;12.01;55.56;101288.19;5016556;28;45611;-72
2022/05/29 03:00:03;;;;;;;;;3.00;3.00;;;;;12.06;55.21;101301.13;5015913;28;45322;-73
2022/05/29 03:02:44;;;;;;;;;2.00;1.00;;;;;11.90;55.41;101288.34;5015566;28;47862;-78
2022/05/29 03:05:28;;;;;;;;;4.00;2.00;;;;;12.34;55.49;101334.91;5034127;28;45465;-72
2022/05/29 03:08:18;;;;;;;;;2.67;2.67;;;;;12.40;55.18;101344.16;5037197;28;45186;-75
2022/05/29 03:11:07;;;;;;;;;3.00;3.00;;;;;12.28;55.23;101329.31;5037646;28;45488;-73
2022/05/29 03:13:41;;;;;;;;;3.67;3.00;;;;;12.34;55.26;101340.25;5022076;28;45791;-75
2022/05/29 03:16:31;;;;;;;;;3.33;3.33;;;;;12.19;56.14;101337.16;5020279;28;45540;-73
2022/05/29 03:19:15;;;;;;;;;3.67;3.67;;;;;10.54;56.34;101084.09;5032571;28;45375;-73
2022/05/29 03:21:54;;;;;;;;;4.00;4.00;;;;;11.70;56.94;101299.94;5017166;28;45385;-73
2022/05/29 03:24:53;;;;;;;;;6.00;5.00;;;;;11.84;57.38;101329.72;5028056;28;45644;-74
2022/05/29 03:27:31;;;;;;;;;2.00;2.00;;;;;11.84;57.29;101329.72;5035973;28;45506;-73
2022/05/29 03:30:17;;;;;;;;;3.00;3.00;;;;;10.60;56.83;101113.63;5036716;28;45316;-73
2022/05/29 03:32:43;;;;;;;;;5.33;4.67;;;;;11.98;56.99;101319.63;5037641;28;45385;-74
2022/05/29 03:35:30;;;;;;;;;5.67;5.67;;;;;11.95;56.81;101317.22;5054465;28;47636;-74
2022/05/29 03:37:57;;;;;;;;;4.00;3.00;;;;;11.38;56.96;101207.78;5036244;28;45592;-74
2022/05/29 03:40:25;;;;;;;;;5.67;5.67;;;;;11.51;57.20;101250.13;5042278;28;45502;-74
2022/05/29 03:42:51;;;;;;;;;3.33;3.00;;;;;11.97;56.74;101331.25;5015763;28;45329;-73
2022/05/29 03:45:17;;;;;;;;;5.67;3.00;;;;;11.63;57.01;101270.34;5032247;28;46411;-72
2022/05/29 03:47:42;;;;;;;;;2.67;2.67;;;;;11.64;57.20;101260.53;5016647;28;45439;-72
2022/05/29 03:50:12;;;;;;;;;4.00;4.00;;;;;11.88;57.15;101323.13;5037760;28;45965;-74
2022/05/29 03:52:38;;;;;;;;;3.33;3.33;;;;;11.77;57.50;101298.38;5036981;28;45226;-72
2022/05/29 03:55:04;;;;;;;;;4.33;3.00;;;;;11.99;57.04;101313.31;5034699;28;47504;-73
2022/05/29 03:57:30;;;;;;;;;3.67;3.67;;;;;12.04;56.47;101321.75;5034255;28;45340;-74
2022/05/29 03:59:56;;;;;;;;;2.33;2.33;;;;;11.19;56.63;101181.13;5040099;28;45426;-73
2022/05/29 04:02:21;;;;;;;;;5.33;3.00;;;;;11.71;57.51;101288.28;5035378;28;46860;-73
2022/05/29 04:04:47;;;;;;;;;2.33;2.33;;;;;11.85;57.20;101322.56;5032733;28;48284;-72
2022/05/29 04:07:12;;;;;;;;;3.00;3.00;;;;;11.35;57.25;101215.22;5021657;28;45455;-74
2022/05/29 04:12:22;;;;;;;;;3.00;3.00;;;;;11.48;57.57;101255.75;5019929;28;45198;-73
2022/05/29 04:14:48;;;;;;;;;8.00;5.67;;;;;11.78;57.54;101284.97;5019238;28;45806;-73
2022/05/29 04:17:18;;;;;;;;;4.67;4.00;;;;;11.31;56.59;101219.13;5027374;28;45555;-72
2022/05/29 04:19:46;;;;;;;;;2.00;2.00;;;;;12.01;56.46;101300.69;5039643;28;45311;-75
2022/05/29 04:22:17;;;;;;;;;4.33;3.00;;;;;12.10;56.84;101334.50;5038459;28;45618;-75
2022/05/29 04:24:43;;;;;;;;;5.00;5.00;;;;;11.44;56.32;101211.75;5037703;28;48875;-74
2022/05/29 04:27:11;;;;;;;;;3.00;3.00;;;;;12.10;56.52;101324.69;5030028;28;45273;-73
2022/05/29 04:29:37;;;;;;;;;3.67;2.00;;;;;11.72;56.65;101274.84;5031779;28;45501;-74
2022/05/29 04:34:55;;;;;;;;;2.00;2.00;;;;;11.72;56.82;101292.63;5038513;28;45730;-74
2022/05/29 04:37:21;;;;;;;;;4.00;3.00;;;;;11.56;57.60;101263.88;5029855;28;45485;-74
2022/05/29 04:39:46;;;;;;;;;2.67;2.67;;;;;11.86;57.24;101292.28;5019200;28;45328;-72
2022/05/29 04:42:12;;;;;;;;;4.67;3.00;;;;;11.96;57.06;101308.25;5019372;28;45318;-72
2022/05/29 04:44:37;;;;;;;;;4.67;3.33;;;;;11.81;56.88;101283.84;5018989;28;46217;-71
2022/05/29 04:47:03;;;;;;;;;3.00;2.00;;;;;11.95;56.96;101301.25;5033865;28;45687;-74
2022/05/29 04:49:29;;;;;;;;;2.67;2.67;;;;;11.92;57.52;101328.16;5019271;28;45325;-73
2022/05/29 04:51:55;;;;;;;;;5.00;5.00;;;;;11.02;58.00;101189.81;5019717;28;45561;-73
2022/05/29 04:54:20;;;;;;;;;3.00;3.00;;;;;11.76;57.71;101300.22;5017502;28;47423;-72
2022/05/29 04:56:47;;;;;;;;;2.67;2.00;;;;;11.36;58.04;101251.50;5026182;28;45171;-73
2022/05/29 04:59:13;;;;;;;;;2.00;2.00;;;;;11.59;57.82;101284.91;5038290;28;45280;-72
2022/05/29 05:01:38;;;;;;;;;4.33;3.67;;;;;11.51;57.62;101266.09;5038961;28;45505;-73
2022/05/29 05:04:04;;;;;;;;;5.00;3.67;;;;;11.86;57.64;101295.78;5038869;28;46417;-73
2022/05/29 05:06:30;;;;;;;;;4.67;4.00;;;;;12.01;57.11;101303.34;5020384;28;45805;-74
2022/05/29 05:08:56;;;;;;;;;4.00;4.00;;;;;12.05;57.11;101315.44;5019056;28;45430;-74
2022/05/29 05:11:21;;;;;;;;;4.00;2.67;;;;;12.01;57.00;101300.69;5019338;28;45358;-72
2022/05/29 05:13:46;;;;;;;;;3.33;3.33;;;;;11.98;57.23;101308.94;5017907;28;45763;-72
2022/05/29 05:16:12;;;;;;;;;6.00;4.00;;;;;11.65;57.00;101259.56;5018736;28;45305;-74
2022/05/29 05:18:37;;;;;;;;;3.67;3.67;;;;;11.79;56.83;101260.00;5022743;28;45450;-74
2022/05/29 05:21:05;;;;;;;;;4.00;4.00;;;;;12.15;56.95;101319.75;5039556;28;45225;-74
2022/05/29 05:23:31;;;;;;;;;3.00;3.00;;;;;11.80;56.96;101255.50;5040770;28;46346;-71
2022/05/29 05:25:57;;;;;;;;;4.00;4.00;;;;;11.92;56.96;101288.19;5040345;28;45273;-73
2022/05/29 05:28:22;;;;;;;;;8.33;4.67;;;;;11.40;57.31;101205.81;5037614;28;45166;-74
2022/05/29 05:30:48;;;;;;;;;3.00;3.00;;;;;12.16;56.98;101323.28;5054227;28;45516;-74
2022/05/29 05:33:14;;;;;;;;;7.33;7.00;;;;;12.12;57.11;101320.06;5038208;28;46449;-73
2022/05/29 05:35:39;;;;;;;;;5.00;4.00;;;;;12.01;57.10;101287.34;5038029;28;45754;-73
2022/05/29 05:38:05;;;;;;;;;3.33;3.33;;;;;11.01;56.93;101127.72;5017389;28;45436;-72
2022/05/29 05:40:33;;;;;;;;;4.00;4.00;;;;;11.16;56.40;101158.31;5018450;28;45405;-74
2022/05/29 05:42:59;;;;;;;;;7.00;4.67;;;;;11.91;56.61;101254.53;5017916;28;46537;-73
2022/05/29 05:45:24;;;;;;;;;3.33;3.33;;;;;12.32;56.41;101310.22;5033191;28;45426;-74
2022/05/29 05:47:49;;;;;;;;;4.00;4.00;;;;;12.43;55.88;101299.41;5018215;28;45503;-73
2022/05/29 05:50:15;;;;;;;;;3.67;3.67;;;;;12.56;55.76;101333.78;5018350;28;45225;-72
2022/05/29 05:52:42;;;;;;;;;6.67;6.67;;;;;12.44;55.95;101295.78;5016689;28;47052;-74
2022/05/29 05:55:12;;;;;;;;;5.00;3.67;;;;;12.42;55.06;101257.75;5018662;28;45293;-74
2022/05/29 05:57:39;;;;;;;;;3.67;3.67;;;;;13.18;53.74;101264.78;5019037;28;45331;-75
2022/05/29 06:00:09;;;;;;;;;7.00;5.67;;;;;14.30;51.90;101306.22;5034214;28;45258;-73
2022/05/29 06:02:35;;;;;;;;;40.75;35.75;;;;;15.25;49.15;101291.97;5033102;28;48145;-72
2022/05/29 06:05:00;;;;;;;;;1.33;1.33;;;;;16.02;46.49;101258.69;5017378;28;46546;-74
2022/05/29 06:07:25;;;;;;;;;13.33;10.00;;;;;16.76;44.95;101251.41;5017871;28;45353;-72
2022/05/29 06:09:51;;;;;;;;;5.00;4.00;;;;;17.98;42.63;101312.69;5018271;28;45424;-73
2022/05/29 06:12:19;;;;;;;;;4.33;2.00;;;;;18.27;40.10;101251.94;5018165;28;45435;-74
2022/05/29 06:14:46;;;;;;;;;3.00;2.00;;;;;19.09;39.39;101310.22;5026797;28;45405;-73
2022/05/29 06:17:11;;;;;;;;;2.33;2.33;;;;;19.75;38.14;101307.56;5022318;28;45363;-75
2022/05/29 06:19:37;;;;;;;;;4.33;2.67;;;;;19.90;36.63;101302.94;5030429;28;45182;-73
2022/05/29 06:22:02;;;;;;;;;1.00;1.00;;;;;19.96;36.07;101298.63;5037332;28;45628;-76
2022/05/29 06:24:28;;;;;;;;;1.00;1.00;;;;;19.96;36.73;101266.25;5036371;28;45332;-74
2022/05/29 06:26:58;;;;;;;;;1.67;1.67;;;;;20.65;36.17;101294.31;5035702;28;45630;-73
2022/05/29 06:29:23;;;;;;;;;4.00;2.00;;;;;20.82;35.17;101259.72;5018754;28;45450;-74
2022/05/29 06:31:49;;;;;;;;;4.00;2.33;;;;;21.36;33.88;101296.84;5017673;28;46638;-72
2022/05/29 06:34:14;;;;;;;;;4.33;2.00;;;;;21.51;33.46;101284.00;5017647;28;45369;-74
2022/05/29 06:36:40;;;;;;;;;1.00;1.00;;;;;21.80;33.21;101265.75;5040755;28;45321;-73
2022/05/29 06:39:06;;;;;;;;;1.00;1.00;;;;;22.15;32.02;101261.06;5036592;28;45507;-72
2022/05/29 06:41:33;;;;;;;;;4.33;2.00;;;;;22.06;31.84;101255.00;5037268;28;45510;-73
2022/05/29 06:43:59;;;;;;;;;3.00;1.00;;;;;22.38;31.26;101238.97;5036056;28;46138;-75
2022/05/29 06:46:25;;;;;;;;;1.00;1.00;;;;;22.59;30.43;101302.94;5019372;28;45499;-74
2022/05/29 06:48:50;;;;;;;;;3.00;3.00;;;;;22.83;30.99;101264.38;5016065;28;45480;-75
2022/05/29 06:51:22;;;;;;;;;1.00;1.00;;;;;23.01;30.02;101293.50;5017450;28;45497;-74
2022/05/29 06:53:52;;;;;;;;;3.00;3.00;;;;;22.51;30.48;101263.34;5017213;28;45471;-73
2022/05/29 06:56:19;;;;;;;;;4.33;3.00;;;;;21.84;31.02;101162.31;5018482;28;45382;-73
2022/05/29 06:58:46;;;;;;;;;2.00;2.00;;;;;23.08;30.92;101288.94;5017446;28;45317;-73
2022/05/29 07:07:01;;;;;;;;;1.00;1.00;;;;;22.79;29.76;101263.09;5019346;28;45374;-74
2022/05/29 07:09:31;;;;;;;;;1.00;1.00;;;;;23.15;29.48;101292.44;5036791;28;45389;-75
2022/05/29 07:12:08;;;;;;;;;1.00;1.00;;;;;23.11;28.88;101233.41;5030479;28;46224;-75
2022/05/29 07:14:40;;;;;;;;;2.33;1.00;;;;;23.80;28.33;101292.38;5036639;28;45364;-72
2022/05/29 07:17:06;;;;;;;;;1.00;1.00;;;;;23.76;27.88;101229.56;5036994;28;45475;-73
2022/05/29 07:19:32;;;;;;;;;1.00;1.00;;;;;24.62;27.09;101285.94;5034456;28;45512;-74
2022/05/29 07:21:58;;;;;;;;;1.00;1.00;;;;;25.01;26.12;101284.75;5052238;28;47019;-72
2022/05/29 07:24:26;;;;;;;;;1.00;1.00;;;;;24.39;25.84;101258.56;5037059;28;45246;-73
2022/05/29 07:26:53;;;;;;;;;1.33;1.33;;;;;23.78;26.49;101249.16;5052148;28;45486;-75
2022/05/29 07:29:19;;;;;;;;;0.00;0.00;;;;;23.51;27.14;101278.31;5032747;28;45593;-73
2022/05/29 07:31:45;;;;;;;;;3.00;1.00;;;;;22.95;27.78;101261.84;5016962;28;46423;-73
2022/05/29 07:34:11;;;;;;;;;1.00;1.00;;;;;21.92;29.30;101219.97;5016715;28;45392;-76
2022/05/29 07:36:37;;;;;;;;;1.00;1.00;;;;;21.22;28.85;101203.97;5018723;28;45213;-74
2022/05/29 07:39:03;;;;;;;;;1.00;1.00;;;;;21.21;29.18;101242.84;5030179;28;45329;-76
2022/05/29 07:44:12;;;;;;;;;0.33;0.33;;;;;20.24;30.07;101172.66;5039426;28;45420;-74
2022/05/29 07:46:38;;;;;;;;;1.00;1.00;;;;;20.09;30.51;101153.03;5022277;28;45321;-75
2022/05/29 07:49:03;;;;;;;;;0.67;0.67;;;;;20.90;30.92;101273.06;5025559;28;45487;-72
2022/05/29 07:51:29;;;;;;;;;0.00;0.00;;;;;21.26;30.27;101285.56;5055124;28;47619;-74
2022/05/29 07:53:57;;;;;;;;;1.00;1.00;;;;;20.61;30.44;101205.72;5039470;28;45316;-73
2022/05/29 07:56:22;;;;;;;;;1.00;1.00;;;;;20.89;30.15;101278.69;5030731;28;45338;-76
2022/05/29 07:58:50;;;;;;;;;0.67;0.67;;;;;20.49;30.39;101240.59;5036546;28;45587;-72
2022/05/29 08:01:16;;;;;;;;;0.33;0.33;;;;;20.47;30.54;101291.25;5017964;28;45368;-73
2022/05/29 08:03:42;;;;;;;;;1.00;1.00;;;;;19.84;30.91;101230.88;5035411;28;46395;-74
2022/05/29 08:06:08;;;;;;;;;1.00;1.00;;;;;19.68;31.29;101245.44;5030881;28;45411;-71
2022/05/29 08:08:36;;;;;;;;;1.00;1.00;;;;;19.46;31.17;101243.72;5023799;28;45538;-74
2022/05/29 08:11:02;;;;;;;;;1.67;0.67;;;;;19.41;30.92;101276.63;5024150;28;46222;-75
2022/05/29 08:13:30;;;;;;;;;1.00;1.00;;;;;19.01;31.27;101282.50;5022126;28;45510;-74
2022/05/29 08:15:56;;;;;;;;;1.00;1.00;;;;;18.40;32.32;101247.59;5039109;28;45490;-72
2022/05/29 08:18:22;;;;;;;;;0.00;0.00;;;;;18.15;33.18;101270.38;5041278;28;45343;-73
2022/05/29 08:20:47;;;;;;;;;10.00;9.67;;;;;18.47;33.09;101250.41;5040990;28;46256;-73
2022/05/29 08:23:13;;;;;;;;;1.00;1.00;;;;;19.00;31.77;101214.31;5040930;28;45400;-75
2022/05/29 08:31:06;;;;;;;;;1.00;0.00;;;;;20.64;29.79;101208.06;5019644;28;45419;-74
2022/05/29 08:33:36;;;;;;;;;1.00;0.00;;;;;21.27;29.03;101262.91;5036312;28;45407;-75
2022/05/29 08:36:08;;;;;;;;;0.67;0.67;;;;;21.46;28.60;101240.50;5049022;28;45475;-75
2022/05/29 08:38:37;;;;;;;;;1.00;1.00;;;;;21.63;28.21;101186.00;5039641;28;45495;-73
2022/05/29 08:41:10;;;;;;;;;1.00;1.00;;;;;22.21;26.89;101214.16;5038970;28;46636;-74
2022/05/29 08:43:39;;;;;;;;;2.00;1.00;;;;;22.77;26.64;101235.34;5031593;28;45332;-73
2022/05/29 08:46:15;;;;;;;;;0.00;0.00;;;;;21.90;25.66;101038.81;5029808;28;45534;-74
2022/05/29 08:48:40;;;;;;;;;1.00;1.00;;;;;23.91;25.16;101246.38;5038163;28;45627;-75
2022/05/29 08:51:33;;;;;;;;;0.00;0.00;;;;;24.60;24.01;101243.72;5039217;28;46313;-75
2022/05/29 08:54:13;;;;;;;;;1.00;1.00;;;;;25.20;24.39;101235.75;5039833;28;45206;-72
2022/05/29 08:57:00;;;;;;;;;1.33;1.33;;;;;25.66;23.19;101235.16;5039671;28;45356;-74
2022/05/29 08:59:48;;;;;;;;;2.00;1.00;;;;;26.07;22.22;101228.91;5021549;28;45331;-73
2022/05/29 09:03:07;;;;;;;;;0.67;0.67;;;;;26.30;21.61;101233.53;5023471;28;45499;-73
2022/05/29 09:05:51;;;;;;;;;0.33;0.33;;;;;25.45;23.01;101187.50;5054278;28;45451;-76
2022/05/29 09:08:31;;;;;;;;;0.00;0.00;;;;;26.14;22.42;101234.22;5039365;28;45355;-76
2022/05/29 09:11:07;;;;;;;;;0.33;0.33;;;;;25.57;22.65;101221.03;5038746;28;45277;-75
2022/05/29 09:13:43;;;;;;;;;1.00;1.00;;;;;24.48;23.26;101149.34;5038523;28;46712;-74
2022/05/29 09:16:15;;;;;;;;;0.33;0.33;;;;;23.95;24.20;101201.41;5038071;28;45461;-77
2022/05/29 09:18:47;;;;;;;;;2.00;1.00;;;;;23.27;24.86;101192.25;5037297;28;45551;-78
2022/05/29 09:21:18;;;;;;;;;1.00;1.00;;;;;22.23;25.64;101119.19;5037184;28;45358;-73
2022/05/29 09:23:53;;;;;;;;;0.00;0.00;;;;;22.17;26.12;101219.19;5027947;28;46840;-78
2022/05/29 09:26:19;;;;;;;;;0.00;0.00;;;;;21.27;26.48;101088.97;5033697;28;46010;-76
2022/05/29 09:28:45;;;;;;;;;0.33;0.33;;;;;22.75;25.38;101219.31;5033887;28;45196;-76
2022/05/29 09:31:21;;;;;;;;;0.00;0.00;;;;;23.55;24.59;101140.28;5019086;28;45453;-74
2022/05/29 09:33:47;;;;;;;;;1.67;1.00;;;;;25.00;22.08;101215.06;5019196;28;45609;-74
2022/05/29 09:36:44;;;;;;;;;2.00;2.00;;;;;25.19;21.70;101207.72;5016917;28;45495;-75
2022/05/29 09:39:35;;;;;;;;;1.00;1.00;;;;;26.13;21.27;101206.16;5017063;28;45313;-75
2022/05/29 09:42:29;;;;;;;;;0.00;0.00;;;;;27.32;19.92;101198.44;5018761;28;45410;-75
2022/05/29 09:45:22;;;;;;;;;1.00;1.00;;;;;27.32;19.55;101200.34;5018482;28;45778;-75
2022/05/29 09:50:49;;;;;;;;;0.00;0.00;;;;;24.76;20.75;101045.47;5037182;28;45337;-73
2022/05/29 09:53:32;;;;;;;;;1.00;1.00;;;;;24.67;22.38;101176.53;5018544;28;45507;-75
2022/05/29 09:56:07;;;;;;;;;1.00;1.00;;;;;23.14;23.41;101108.22;5036379;28;46517;-73
2022/05/29 09:58:52;;;;;;;;;2.67;2.00;;;;;23.46;23.66;101190.47;5037872;28;45420;-73
2022/05/29 10:01:40;;;;;;;;;0.00;0.00;;;;;23.49;23.87;101200.88;5021242;28;45305;-75
2022/05/29 10:04:28;;;;;;;;;0.67;0.67;;;;;23.02;24.87;101189.41;5021115;28;45503;-75
2022/05/29 10:06:58;;;;;;;;;2.00;0.67;;;;;22.77;25.14;101181.97;5025381;28;45679;-74
2022/05/29 10:09:26;;;;;;;;;1.00;1.00;;;;;22.21;25.72;101129.38;5019939;28;45502;-73
2022/05/29 10:11:59;;;;;;;;;0.33;0.33;;;;;22.08;25.51;101165.44;5020618;28;45471;-72
2022/05/29 10:14:30;;;;;;;;;0.67;0.67;;;;;21.57;27.09;101193.06;5020127;28;45349;-73
2022/05/29 10:16:56;;;;;;;;;1.33;0.67;;;;;21.14;27.98;101196.03;5038226;28;46627;-75
2022/05/29 10:19:50;;;;;;;;;1.00;1.00;;;;;20.75;28.36;101153.44;5038034;28;45374;-75
2022/05/29 10:22:38;;;;;;;;;0.67;0.67;;;;;20.87;28.87;101192.38;5017326;28;45466;-73
2022/05/29 10:25:19;;;;;;;;;1.33;1.33;;;;;20.38;29.16;101161.94;5016918;28;45541;-75
2022/05/29 10:27:48;;;;;;;;;1.00;0.00;;;;;20.33;29.57;101170.63;5017694;28;45326;-76
2022/05/29 10:30:29;;;;;;;;;2.33;2.33;;;;;19.99;30.34;101174.09;5017501;28;45314;-73
2022/05/29 10:33:03;;;;;;;;;0.00;0.00;;;;;20.08;29.84;101180.22;5022255;28;45497;-74
2022/05/29 10:35:41;;;;;;;;;1.67;1.00;;;;;19.49;29.33;101108.47;5034394;28;45606;-77
2022/05/29 10:38:19;;;;;;;;;1.00;1.00;;;;;19.61;29.06;101187.88;5034007;28;45633;-75
2022/05/29 10:40:47;;;;;;;;;1.00;1.00;;;;;19.33;29.26;101149.19;5016806;28;45700;-76
2022/05/29 10:43:12;;;;;;;;;4.00;1.00;;;;;19.70;29.57;101180.50;5035882;28;45642;-77
2022/05/29 10:45:41;;;;;;;;;1.00;1.00;;;;;19.85;29.42;101177.75;5035322;28;45680;-77
2022/05/29 10:48:40;;;;;;;;;1.33;1.00;;;;;19.87;29.51;101165.72;5034665;28;47146;-76
2022/05/29 10:51:08;;;;;;;;;2.00;1.00;;;;;19.62;29.64;101168.00;5033916;28;45431;-75
2022/05/29 10:53:43;;;;;;;;;3.33;3.33;;;;;19.70;29.57;101165.16;5035397;28;45480;-73
2022/05/29 10:56:39;;;;;;;;;1.00;1.00;;;;;19.49;29.58;101166.97;5037771;28;45505;-76
2022/05/29 10:59:22;;;;;;;;;1.00;1.00;;;;;19.53;29.47;101169.09;5036037;28;47138;-74
2022/05/29 11:05:24;;;;;;;;;1.33;1.33;;;;;19.13;30.78;101171.34;5039311;28;45495;-75
2022/05/29 11:08:24;;;;;;;;;2.00;1.00;;;;;19.24;30.47;101169.22;5038335;28;45342;-74
2022/05/29 11:11:08;;;;;;;;;4.00;1.00;;;;;19.37;30.38;101153.16;5036118;28;45993;-77
2022/05/29 11:13:48;;;;;;;;;0.67;0.67;;;;;19.56;30.61;101157.94;5035752;28;45417;-76
2022/05/29 11:16:22;;;;;;;;;3.00;3.00;;;;;19.78;30.20;101144.44;5037475;28;45159;-75
2022/05/29 11:19:19;;;;;;;;;2.33;2.00;;;;;19.84;30.03;101143.69;5037496;28;45396;-74
2022/05/29 11:21:57;;;;;;;;;1.00;1.00;;;;;19.92;29.97;101140.84;5036723;28;46130;-75
2022/05/29 11:24:53;;;;;;;;;2.67;2.00;;;;;20.09;30.13;101136.00;5036944;28;45308;-74
2022/05/29 11:27:41;;;;;;;;;2.33;2.33;;;;;20.42;29.80;101125.41;5037066;28;45326;-76
2022/05/29 11:30:15;;;;;;;;;2.67;2.67;;;;;20.34;29.16;101084.00;5037069;28;45533;-77
2022/05/29 11:33:01;;;;;;;;;4.00;2.00;;;;;20.62;28.10;101129.91;5037158;28;45292;-76
2022/05/29 11:35:39;;;;;;;;;1.00;1.00;;;;;20.35;28.83;101123.50;5036180;28;46287;-74
2022/05/29 11:38:10;;;;;;;;;2.00;2.00;;;;;20.27;29.01;101112.84;5037700;28;45393;-78
2022/05/29 11:40:43;;;;;;;;;1.67;1.67;;;;;19.79;28.48;101086.75;5039025;28;45530;-73
2022/05/29 11:43:11;;;;;;;;;2.33;1.33;;;;;19.90;29.01;101105.13;5036486;28;48503;-77
2022/05/29 11:52:02;;;;;;;;;2.00;2.00;;;;;19.36;30.11;101011.28;5009370;28;45384;-75
2022/05/29 11:54:40;;;;;;;;;2.00;2.00;;;;;19.06;28.89;100957.56;5015533;28;46336;-76
2022/05/29 11:57:05;;;;;;;;;1.67;1.67;;;;;19.85;28.61;101094.09;5013932;28;45800;-75
2022/05/29 12:00:15;;;;;;;;;2.00;2.00;;;;;19.72;28.20;101092.94;5014988;28;45210;-75
2022/05/29 12:02:40;;;;;;;;;2.67;1.67;;;;;19.06;28.12;100952.16;5008283;28;45611;-77
2022/05/29 12:05:16;;;;;;;;;1.00;1.00;;;;;19.74;28.08;101090.06;5016602;28;46555;-75
2022/05/29 12:07:54;;;;;;;;;0.33;0.33;;;;;19.55;27.20;101085.31;5015627;28;45926;-75
2022/05/29 12:10:26;;;;;;;;;6.67;6.67;;;;;17.92;28.11;100830.06;5015129;28;45275;-73
2022/05/29 12:13:14;;;;;;;;;1.33;1.33;;;;;19.51;27.25;101074.06;5016739;28;45270;-74
2022/05/29 12:15:41;;;;;;;;;1.00;1.00;;;;;19.42;27.56;101038.31;5016378;28;46266;-72
2022/05/29 12:18:13;;;;;;;;;2.00;2.00;;;;;18.29;28.08;100890.06;5016485;28;45215;-74
2022/05/29 12:20:49;;;;;;;;;1.33;1.33;;;;;19.31;28.40;101062.28;5014950;28;45412;-76